Time;durP1;ratioP1;P1;durP2;ratioP2;P2;SDS_P1;SDS_P2;PMS_P1;PMS_P2;Temp;Humidity;BMP_temperature;BMP_pressure;BME280_temperature;BME280_humidity;BME280_pressure;Samples;Min_cycle;Max_cycle;Signal;HPM_P1;HPM_P2
2023/04/03 00:00:22;;;;;;;2.50;1.63;;;;;;;;;;5007894;28;20038;-76
2023/04/03 00:02:47;;;;;;;4.10;1.90;;;;;;;;;;5004988;28;20044;-77
2023/04/03 00:05:13;;;;;;;2.95;1.60;;;;;;;;;;5008192;28;20038;-76
2023/04/03 00:07:38;;;;;;;4.53;1.60;;;;;;;;;;5010842;28;20034;-76
2023/04/03 00:10:04;;;;;;;2.85;1.42;;;;;;;;;;5010278;28;20056;-76
2023/04/03 00:12:29;;;;;;;2.95;1.50;;;;;;;;;;5012054;28;20030;-76
2023/04/03 00:14:55;;;;;;;4.43;1.58;;;;;;;;;;4993143;28;20080;-76
2023/04/03 00:17:20;;;;;;;3.30;1.50;;;;;;;;;;5013010;28;20034;-76
2023/04/03 00:19:46;;;;;;;2.60;1.48;;;;;;;;;;4994783;28;20112;-76
2023/04/03 00:22:11;;;;;;;4.88;1.70;;;;;;;;;;4993277;28;20025;-77
2023/04/03 00:24:36;;;;;;;3.85;1.50;;;;;;;;;;5013466;28;20038;-76
2023/04/03 00:27:02;;;;;;;3.50;1.50;;;;;;;;;;4995632;28;20113;-76
2023/04/03 00:29:27;;;;;;;3.40;1.63;;;;;;;;;;5005825;28;20029;-77
2023/04/03 00:31:52;;;;;;;3.53;1.73;;;;;;;;;;5012154;28;20040;-76
2023/04/03 00:34:17;;;;;;;3.60;1.45;;;;;;;;;;5006703;28;20470;-76
2023/04/03 00:36:43;;;;;;;2.72;1.40;;;;;;;;;;4993051;28;20496;-76
2023/04/03 00:39:08;;;;;;;3.15;1.40;;;;;;;;;;5013005;28;20375;-76
2023/04/03 00:41:35;;;;;;;2.58;1.40;;;;;;;;;;5013583;28;20040;-76
2023/04/03 00:44:00;;;;;;;3.45;1.50;;;;;;;;;;4990646;28;20606;-76
2023/04/03 00:46:25;;;;;;;2.03;1.23;;;;;;;;;;5018361;28;20105;-75
2023/04/03 00:48:51;;;;;;;3.90;1.60;;;;;;;;;;5011423;28;22080;-77
2023/04/03 00:51:24;;;;;;;3.97;1.30;;;;;;;;;;4993493;28;20048;-77
2023/04/03 00:54:02;;;;;;;2.85;1.45;;;;;;;;;;5002722;28;20040;-76
2023/04/03 00:56:30;;;;;;;3.42;1.55;;;;;;;;;;5010853;28;20064;-76
2023/04/03 00:59:09;;;;;;;3.33;1.17;;;;;;;;;;4989779;28;20608;-76
2023/04/03 01:01:35;;;;;;;2.83;1.50;;;;;;;;;;5009116;28;20025;-77
2023/04/03 01:04:02;;;;;;;2.28;1.10;;;;;;;;;;5010380;28;20490;-76
2023/04/03 01:06:32;;;;;;;3.15;1.27;;;;;;;;;;5007295;28;20037;-75
2023/04/03 01:08:59;;;;;;;3.13;1.50;;;;;;;;;;5007594;28;20516;-75
2023/04/03 01:11:25;;;;;;;2.83;1.33;;;;;;;;;;4991995;28;20045;-76
2023/04/03 01:13:51;;;;;;;4.28;1.73;;;;;;;;;;4991976;28;20038;-75
2023/04/03 01:16:16;;;;;;;3.80;1.38;;;;;;;;;;5009181;28;20022;-75
2023/04/03 01:18:43;;;;;;;3.15;1.40;;;;;;;;;;4991141;28;20041;-76
2023/04/03 01:21:56;;;;;;;3.35;1.45;;;;;;;;;;4975799;28;20049;-77
2023/04/03 01:24:27;;;;;;;3.83;1.30;;;;;;;;;;4987457;28;20057;-76
2023/04/03 01:26:52;;;;;;;2.55;1.25;;;;;;;;;;4993022;28;20478;-76
2023/04/03 01:29:18;;;;;;;2.78;1.30;;;;;;;;;;4992028;28;20120;-76
2023/04/03 01:31:49;;;;;;;3.15;1.38;;;;;;;;;;5010443;28;20037;-77
2023/04/03 01:34:15;;;;;;;4.10;1.52;;;;;;;;;;5008031;28;20053;-76
2023/04/03 01:36:40;;;;;;;4.88;1.27;;;;;;;;;;5006650;28;20033;-76
2023/04/03 01:39:06;;;;;;;3.70;1.40;;;;;;;;;;5000682;28;20466;-76
2023/04/03 01:41:32;;;;;;;3.25;1.35;;;;;;;;;;5005100;28;20390;-76
2023/04/03 01:43:57;;;;;;;2.95;1.10;;;;;;;;;;4989832;28;20026;-76
2023/04/03 01:46:22;;;;;;;2.30;1.05;;;;;;;;;;5008016;28;20037;-76
2023/04/03 01:48:48;;;;;;;3.90;1.30;;;;;;;;;;4993666;28;20032;-76
2023/04/03 01:51:13;;;;;;;4.80;1.60;;;;;;;;;;5007584;28;20108;-76
2023/04/03 01:53:39;;;;;;;2.35;1.27;;;;;;;;;;5006770;28;20093;-76
2023/04/03 01:56:05;;;;;;;1.75;1.05;;;;;;;;;;4989665;28;20026;-76
2023/04/03 01:58:30;;;;;;;2.90;1.33;;;;;;;;;;5007063;28;20022;-76
2023/04/03 02:00:55;;;;;;;2.25;1.17;;;;;;;;;;4991881;28;20444;-76
2023/04/03 02:03:21;;;;;;;4.30;1.30;;;;;;;;;;4989248;28;20040;-77
2023/04/03 02:05:46;;;;;;;2.55;1.40;;;;;;;;;;5010583;28;20104;-76
2023/04/03 02:08:12;;;;;;;3.22;1.20;;;;;;;;;;5003332;28;20042;-76
2023/04/03 02:10:38;;;;;;;1.98;1.10;;;;;;;;;;5005736;28;20394;-76
2023/04/03 02:13:03;;;;;;;3.00;1.13;;;;;;;;;;4984818;28;20022;-76
2023/04/03 02:15:29;;;;;;;5.45;1.65;;;;;;;;;;5008291;28;20030;-76
2023/04/03 02:17:54;;;;;;;2.80;1.40;;;;;;;;;;4988314;28;20449;-76
2023/04/03 02:20:20;;;;;;;2.30;1.25;;;;;;;;;;4990903;28;20478;-76
2023/04/03 02:22:45;;;;;;;3.38;1.30;;;;;;;;;;5003443;28;20050;-76
2023/04/03 02:25:11;;;;;;;2.78;1.35;;;;;;;;;;5008555;28;20033;-76
2023/04/03 02:27:37;;;;;;;2.75;1.42;;;;;;;;;;4994121;28;20057;-76
2023/04/03 02:30:04;;;;;;;3.60;1.40;;;;;;;;;;5007970;28;20097;-77
2023/04/03 02:32:29;;;;;;;4.35;1.48;;;;;;;;;;4988938;28;20425;-77
2023/04/03 02:34:55;;;;;;;2.88;1.30;;;;;;;;;;5004077;28;20033;-76
2023/04/03 02:37:21;;;;;;;4.68;1.55;;;;;;;;;;5005764;28;20030;-76
2023/04/03 02:39:46;;;;;;;3.60;1.25;;;;;;;;;;5009039;28;20026;-77
2023/04/03 02:42:12;;;;;;;2.88;1.30;;;;;;;;;;4993928;28;20410;-76
2023/04/03 02:44:38;;;;;;;4.78;1.60;;;;;;;;;;5010473;28;20383;-77
2023/04/03 02:47:04;;;;;;;2.92;1.40;;;;;;;;;;4989723;28;20029;-76
2023/04/03 02:49:29;;;;;;;2.72;1.17;;;;;;;;;;5009985;28;20033;-78
2023/04/03 02:51:55;;;;;;;4.10;1.80;;;;;;;;;;4986882;28;20505;-77
2023/04/03 02:54:20;;;;;;;2.83;1.40;;;;;;;;;;4989698;28;20030;-76
2023/04/03 02:56:46;;;;;;;4.70;1.50;;;;;;;;;;4987878;28;20105;-77
2023/04/03 02:59:11;;;;;;;2.65;1.35;;;;;;;;;;5006451;28;20034;-77
2023/04/03 03:01:36;;;;;;;2.22;1.30;;;;;;;;;;5007619;28;20034;-77
2023/04/03 03:04:02;;;;;;;2.50;1.20;;;;;;;;;;5006782;28;20046;-76
2023/04/03 03:06:28;;;;;;;4.20;1.60;;;;;;;;;;4987190;28;20038;-77
2023/04/03 03:08:53;;;;;;;3.60;1.38;;;;;;;;;;5009155;28;20519;-76
2023/04/03 03:11:19;;;;;;;3.15;1.60;;;;;;;;;;4996006;28;20032;-76
2023/04/03 03:13:45;;;;;;;3.55;1.42;;;;;;;;;;5011215;28;20060;-77
2023/04/03 03:16:10;;;;;;;2.90;1.38;;;;;;;;;;4991730;28;20517;-77
2023/04/03 03:18:36;;;;;;;3.60;1.45;;;;;;;;;;4995542;28;20112;-76
2023/04/03 03:21:03;;;;;;;4.82;1.63;;;;;;;;;;5009187;28;20037;-77
2023/04/03 03:23:29;;;;;;;3.85;1.48;;;;;;;;;;4990852;28;20034;-77
2023/04/03 03:26:07;;;;;;;4.53;1.73;;;;;;;;;;5010733;28;20033;-78
2023/04/03 03:28:32;;;;;;;2.78;1.30;;;;;;;;;;4987459;28;20520;-76
2023/04/03 03:30:59;;;;;;;3.05;1.23;;;;;;;;;;4988210;28;20026;-77
2023/04/03 03:33:25;;;;;;;3.08;1.23;;;;;;;;;;4989213;28;20093;-76
2023/04/03 03:35:51;;;;;;;2.90;1.08;;;;;;;;;;4992818;28;20099;-77
2023/04/03 03:38:16;;;;;;;3.08;1.60;;;;;;;;;;5005398;28;20029;-77
2023/04/03 03:40:42;;;;;;;3.10;1.40;;;;;;;;;;5006064;28;20405;-77
2023/04/03 03:43:07;;;;;;;4.15;1.58;;;;;;;;;;5003916;28;20120;-77
2023/04/03 03:45:32;;;;;;;2.75;1.08;;;;;;;;;;5010017;28;20509;-77
2023/04/03 03:47:58;;;;;;;2.53;1.20;;;;;;;;;;4991832;28;20036;-77
2023/04/03 03:50:23;;;;;;;3.88;1.40;;;;;;;;;;5010920;28;20026;-77
2023/04/03 03:52:48;;;;;;;2.38;1.42;;;;;;;;;;5008295;28;20030;-77
2023/04/03 03:55:14;;;;;;;4.13;1.63;;;;;;;;;;5008738;28;20026;-78
2023/04/03 03:57:39;;;;;;;5.30;1.38;;;;;;;;;;4994709;28;20411;-77
2023/04/03 04:00:06;;;;;;;3.63;1.23;;;;;;;;;;5011879;28;20494;-77
2023/04/03 04:02:32;;;;;;;3.63;1.40;;;;;;;;;;4992356;28;20577;-77
2023/04/03 04:04:57;;;;;;;4.20;1.40;;;;;;;;;;5003429;28;20401;-77
2023/04/03 04:07:23;;;;;;;2.65;1.13;;;;;;;;;;4989944;28;20052;-77
2023/04/03 04:09:48;;;;;;;2.90;1.40;;;;;;;;;;4992093;28;20033;-77
2023/04/03 04:12:14;;;;;;;3.78;1.50;;;;;;;;;;4988879;28;20026;-77
2023/04/03 04:14:39;;;;;;;3.85;1.30;;;;;;;;;;4994951;28;20022;-77
2023/04/03 04:17:05;;;;;;;2.88;1.20;;;;;;;;;;4996357;28;21020;-78
2023/04/03 04:19:30;;;;;;;2.45;1.25;;;;;;;;;;4993344;28;20909;-77
2023/04/03 04:21:56;;;;;;;3.17;1.48;;;;;;;;;;4986420;28;20029;-77
2023/04/03 04:24:22;;;;;;;3.33;1.30;;;;;;;;;;4988652;28;20085;-77
2023/04/03 04:26:48;;;;;;;2.40;1.23;;;;;;;;;;4996152;28;20029;-77
2023/04/03 04:29:13;;;;;;;3.75;1.40;;;;;;;;;;4994718;28;20079;-77
2023/04/03 04:31:39;;;;;;;3.50;1.42;;;;;;;;;;5011853;28;20030;-78
2023/04/03 04:34:04;;;;;;;2.95;1.45;;;;;;;;;;5011462;28;20018;-78
2023/04/03 04:36:30;;;;;;;2.65;1.30;;;;;;;;;;5013072;28;20029;-77
2023/04/03 04:38:55;;;;;;;4.15;1.63;;;;;;;;;;5011293;28;20497;-77
2023/04/03 04:41:22;;;;;;;4.20;1.48;;;;;;;;;;4991619;28;20107;-77
2023/04/03 04:43:48;;;;;;;2.40;1.25;;;;;;;;;;4976906;28;20029;-77
2023/04/03 04:46:14;;;;;;;2.45;1.10;;;;;;;;;;5006886;28;20109;-77
2023/04/03 04:48:40;;;;;;;3.33;1.20;;;;;;;;;;4991623;28;20042;-78
2023/04/03 04:51:06;;;;;;;3.65;1.17;;;;;;;;;;5005838;28;20029;-77
2023/04/03 04:53:31;;;;;;;3.65;1.40;;;;;;;;;;4990654;28;20026;-78
2023/04/03 04:55:56;;;;;;;3.22;1.40;;;;;;;;;;4993507;28;20029;-78
2023/04/03 04:58:22;;;;;;;4.93;1.58;;;;;;;;;;4992938;28;20029;-77
2023/04/03 05:00:47;;;;;;;2.35;1.05;;;;;;;;;;4989582;28;20041;-77
2023/04/03 05:03:12;;;;;;;3.17;1.30;;;;;;;;;;5005786;28;20665;-77
2023/04/03 05:05:38;;;;;;;2.67;1.27;;;;;;;;;;5011611;28;20433;-77
2023/04/03 05:08:04;;;;;;;2.72;1.25;;;;;;;;;;5005906;28;20567;-77
2023/04/03 05:10:30;;;;;;;2.90;1.10;;;;;;;;;;5005209;28;20032;-77
2023/04/03 05:12:57;;;;;;;2.92;1.35;;;;;;;;;;5009055;28;20057;-77
2023/04/03 05:15:22;;;;;;;3.42;1.35;;;;;;;;;;5003837;28;20490;-77
2023/04/03 05:17:48;;;;;;;3.35;1.10;;;;;;;;;;5007169;28;20092;-77
2023/04/03 05:20:13;;;;;;;5.68;1.30;;;;;;;;;;4991723;28;20077;-78
2023/04/03 05:22:39;;;;;;;2.70;1.20;;;;;;;;;;4993034;28;20029;-78
2023/04/03 05:25:05;;;;;;;3.22;1.23;;;;;;;;;;5002311;28;20029;-77
2023/04/03 05:27:31;;;;;;;3.53;1.33;;;;;;;;;;5003810;28;20030;-77
2023/04/03 05:29:56;;;;;;;2.13;1.10;;;;;;;;;;4990434;28;20041;-77
2023/04/03 05:32:23;;;;;;;5.03;1.20;;;;;;;;;;5006838;28;20030;-77
2023/04/03 05:34:48;;;;;;;3.92;1.50;;;;;;;;;;5007170;28;20033;-77
2023/04/03 05:37:14;;;;;;;4.30;1.30;;;;;;;;;;5013225;28;20026;-77
2023/04/03 05:39:40;;;;;;;2.97;1.20;;;;;;;;;;5007656;28;20025;-77
2023/04/03 05:42:07;;;;;;;4.95;1.25;;;;;;;;;;4994205;28;20022;-77
2023/04/03 05:44:32;;;;;;;2.25;1.10;;;;;;;;;;4992788;28;20520;-77
2023/04/03 05:46:58;;;;;;;4.28;1.48;;;;;;;;;;4989241;28;20045;-77
2023/04/03 05:49:23;;;;;;;2.67;1.10;;;;;;;;;;5010027;28;20029;-77
2023/04/03 05:51:49;;;;;;;2.92;1.30;;;;;;;;;;5003088;28;20197;-77
2023/04/03 05:54:22;;;;;;;4.47;1.17;;;;;;;;;;4988368;28;20494;-77
2023/04/03 05:56:48;;;;;;;3.80;1.23;;;;;;;;;;4990482;28;20029;-77
2023/04/03 05:59:14;;;;;;;5.57;1.48;;;;;;;;;;5006282;28;20528;-77
2023/04/03 06:01:39;;;;;;;3.55;1.23;;;;;;;;;;5007213;28;20044;-77
2023/04/03 06:04:05;;;;;;;3.95;1.33;;;;;;;;;;4988583;28;20030;-77
2023/04/03 06:06:51;;;;;;;3.00;1.20;;;;;;;;;;5012646;28;20061;-77
2023/04/03 06:09:19;;;;;;;3.83;1.52;;;;;;;;;;4991187;28;20471;-77
2023/04/03 06:11:44;;;;;;;3.33;1.25;;;;;;;;;;4990325;28;20034;-77
2023/04/03 06:14:10;;;;;;;3.45;1.40;;;;;;;;;;4989851;28;20103;-77
2023/04/03 06:16:37;;;;;;;2.95;1.40;;;;;;;;;;5003379;28;20430;-77
2023/04/03 06:19:02;;;;;;;2.08;1.23;;;;;;;;;;4988070;28;20026;-77
2023/04/03 06:21:28;;;;;;;5.75;1.40;;;;;;;;;;4986265;28;20034;-77
2023/04/03 06:23:53;;;;;;;4.55;1.63;;;;;;;;;;5000763;28;21351;-77
2023/04/03 06:26:18;;;;;;;3.17;1.35;;;;;;;;;;5003840;28;20432;-77
2023/04/03 06:28:44;;;;;;;5.43;1.63;;;;;;;;;;5010484;28;20025;-76
2023/04/03 06:31:09;;;;;;;4.50;1.38;;;;;;;;;;4988798;28;20068;-76
2023/04/03 06:33:35;;;;;;;3.83;1.35;;;;;;;;;;5009780;28;20058;-76
2023/04/03 06:36:04;;;;;;;5.03;1.60;;;;;;;;;;4982366;28;20060;-75
2023/04/03 06:38:30;;;;;;;3.72;1.58;;;;;;;;;;4993277;28;20402;-75
2023/04/03 06:40:55;;;;;;;3.70;1.70;;;;;;;;;;5009247;28;20036;-75
2023/04/03 06:43:21;;;;;;;3.53;1.60;;;;;;;;;;4998054;28;20022;-75
2023/04/03 06:45:47;;;;;;;8.57;1.38;;;;;;;;;;5008916;28;20026;-74
2023/04/03 06:48:12;;;;;;;2.33;1.17;;;;;;;;;;5010174;28;20026;-76
2023/04/03 06:50:38;;;;;;;3.10;1.23;;;;;;;;;;4990248;28;20109;-75
2023/04/03 06:53:04;;;;;;;4.82;1.40;;;;;;;;;;5017677;28;20037;-76
2023/04/03 06:55:29;;;;;;;6.97;1.38;;;;;;;;;;5013832;28;20022;-75
2023/04/03 06:57:55;;;;;;;2.58;1.38;;;;;;;;;;5000572;28;20113;-75
2023/04/03 07:00:20;;;;;;;4.22;1.60;;;;;;;;;;5001276;28;20026;-75
2023/04/03 07:02:46;;;;;;;4.68;1.67;;;;;;;;;;4994079;28;20025;-75
2023/04/03 07:05:11;;;;;;;2.92;1.33;;;;;;;;;;4991405;28;20022;-75
2023/04/03 07:07:37;;;;;;;4.50;1.35;;;;;;;;;;5011730;28;20030;-76
2023/04/03 07:10:03;;;;;;;3.35;1.48;;;;;;;;;;4995233;28;20088;-74
2023/04/03 07:12:29;;;;;;;4.53;1.48;;;;;;;;;;5011601;28;20038;-76
2023/04/03 07:14:54;;;;;;;2.47;1.40;;;;;;;;;;4998013;28;20128;-75
2023/04/03 07:17:20;;;;;;;3.47;1.17;;;;;;;;;;5010932;28;20044;-75
2023/04/03 07:19:45;;;;;;;3.05;1.40;;;;;;;;;;5012988;28;20082;-74
2023/04/03 07:22:11;;;;;;;3.83;1.40;;;;;;;;;;4998066;28;20041;-75
2023/04/03 07:24:36;;;;;;;4.30;1.30;;;;;;;;;;5012880;28;20034;-75
2023/04/03 07:27:02;;;;;;;4.05;1.15;;;;;;;;;;5015878;28;20032;-76
2023/04/03 07:29:28;;;;;;;5.63;1.42;;;;;;;;;;4993257;28;20411;-75
2023/04/03 07:31:55;;;;;;;5.63;1.58;;;;;;;;;;4998420;28;20045;-74
2023/04/03 07:34:20;;;;;;;3.22;1.13;;;;;;;;;;5010776;28;20037;-74
2023/04/03 07:36:46;;;;;;;4.10;1.55;;;;;;;;;;4995715;28;20022;-75
2023/04/03 07:39:11;;;;;;;3.75;1.40;;;;;;;;;;5011470;28;20025;-75
2023/04/03 07:41:36;;;;;;;4.88;1.52;;;;;;;;;;5017371;28;20037;-77
2023/04/03 07:44:02;;;;;;;4.70;1.23;;;;;;;;;;4993376;28;20037;-76
2023/04/03 07:46:27;;;;;;;4.35;1.63;;;;;;;;;;5008508;28;20105;-75
2023/04/03 07:48:53;;;;;;;2.97;1.30;;;;;;;;;;4996031;28;20075;-74
2023/04/03 07:51:19;;;;;;;5.05;1.50;;;;;;;;;;5012310;28;20033;-75
2023/04/03 07:53:44;;;;;;;6.38;1.40;;;;;;;;;;5011960;28;20065;-75
2023/04/03 07:56:09;;;;;;;4.07;1.30;;;;;;;;;;5007844;28;20406;-75
2023/04/03 07:58:35;;;;;;;3.92;1.35;;;;;;;;;;5011116;28;20025;-74
2023/04/03 08:01:01;;;;;;;3.70;1.27;;;;;;;;;;5006289;28;20091;-76
2023/04/03 08:03:26;;;;;;;3.88;1.30;;;;;;;;;;5010623;28;20104;-75
2023/04/03 08:05:53;;;;;;;4.00;1.58;;;;;;;;;;5013437;28;20109;-75
2023/04/03 08:08:22;;;;;;;4.18;1.15;;;;;;;;;;4999596;28;20064;-75
2023/04/03 08:10:52;;;;;;;3.15;1.13;;;;;;;;;;5016401;28;20038;-76
2023/04/03 08:13:18;;;;;;;4.00;1.40;;;;;;;;;;5014215;28;20022;-75
2023/04/03 08:15:43;;;;;;;2.72;1.20;;;;;;;;;;4995832;28;20467;-75
2023/04/03 08:18:09;;;;;;;3.03;1.17;;;;;;;;;;5014000;28;20026;-74
2023/04/03 08:20:34;;;;;;;3.60;1.42;;;;;;;;;;4997822;28;20898;-75
2023/04/03 08:23:00;;;;;;;3.17;1.23;;;;;;;;;;5011245;28;20382;-75
2023/04/03 08:25:25;;;;;;;4.30;1.27;;;;;;;;;;4998011;28;20057;-76
2023/04/03 08:27:51;;;;;;;2.70;1.00;;;;;;;;;;5011870;28;20385;-74
2023/04/03 08:30:17;;;;;;;2.40;1.13;;;;;;;;;;5009065;28;20032;-75
2023/04/03 08:32:43;;;;;;;3.35;1.20;;;;;;;;;;4991012;28;20116;-75
2023/04/03 08:35:10;;;;;;;2.90;1.10;;;;;;;;;;5006401;28;20029;-75
2023/04/03 08:37:36;;;;;;;3.00;0.85;;;;;;;;;;5007534;28;20029;-75
2023/04/03 08:40:04;;;;;;;2.70;1.20;;;;;;;;;;5012680;28;20029;-75
2023/04/03 08:43:01;;;;;;;2.92;1.20;;;;;;;;;;4989528;28;20026;-74
2023/04/03 08:45:55;;;;;;;3.85;1.00;;;;;;;;;;4989543;28;20114;-74
2023/04/03 08:48:32;;;;;;;1.95;0.93;;;;;;;;;;4995576;28;20037;-75
2023/04/03 08:51:04;;;;;;;5.10;1.10;;;;;;;;;;5009683;28;20057;-74
2023/04/03 08:53:33;;;;;;;3.50;1.00;;;;;;;;;;5009072;28;20030;-74
2023/04/03 08:56:04;;;;;;;3.47;1.13;;;;;;;;;;4988129;28;20040;-75
2023/04/03 08:58:44;;;;;;;2.95;0.98;;;;;;;;;;5011232;28;20116;-75
2023/04/03 09:01:21;;;;;;;3.40;0.90;;;;;;;;;;5014497;28;20037;-74
2023/04/03 09:03:46;;;;;;;4.15;1.73;;;;;;;;;;5006749;28;20025;-74
2023/04/03 09:06:25;;;;;;;3.67;1.00;;;;;;;;;;5002652;28;20099;-74
2023/04/03 09:09:09;;;;;;;4.07;0.88;;;;;;;;;;4989857;28;21296;-75
2023/04/03 09:11:55;;;;;;;3.42;0.98;;;;;;;;;;5010621;28;20029;-75
2023/04/03 09:14:39;;;;;;;2.10;1.00;;;;;;;;;;5004575;28;20041;-74
2023/04/03 09:17:59;;;;;;;1.23;0.70;;;;;;;;;;5004412;28;20072;-75
2023/04/03 09:20:45;;;;;;;1.63;0.70;;;;;;;;;;4914765;29;20036;-74
2023/04/03 09:23:26;;;;;;;1.23;0.65;;;;;;;;;;5006215;28;20434;-75
2023/04/03 09:25:56;;;;;;;1.73;0.90;;;;;;;;;;5005375;28;20502;-75
2023/04/03 09:28:21;;;;;;;4.65;1.00;;;;;;;;;;4984496;28;21689;-78
2023/04/03 09:30:47;;;;;;;1.75;0.88;;;;;;;;;;4985819;28;20022;-77
2023/04/03 09:33:13;;;;;;;2.53;0.80;;;;;;;;;;5005875;28;20026;-78
2023/04/03 09:35:40;;;;;;;2.72;0.80;;;;;;;;;;5005108;28;20091;-79
2023/04/03 09:38:09;;;;;;;1.67;0.65;;;;;;;;;;4987176;28;20033;-78
2023/04/03 09:40:39;;;;;;;1.17;0.70;;;;;;;;;;5000066;28;20030;-78
2023/04/03 09:43:17;;;;;;;1.67;0.60;;;;;;;;;;5007041;28;20523;-78
2023/04/03 09:45:43;;;;;;;1.83;0.70;;;;;;;;;;5007203;28;20026;-78
2023/04/03 09:48:18;;;;;;;3.13;0.80;;;;;;;;;;4986734;28;20037;-79
2023/04/03 09:50:58;;;;;;;0.93;0.35;;;;;;;;;;5006789;28;20045;-79
2023/04/03 09:53:35;;;;;;;2.47;0.80;;;;;;;;;;5003822;28;20026;-79
2023/04/03 09:56:03;;;;;;;2.13;0.68;;;;;;;;;;4996280;28;20025;-79
2023/04/03 09:58:31;;;;;;;0.77;0.40;;;;;;;;;;4997683;28;20095;-79
2023/04/03 10:00:59;;;;;;;2.70;0.52;;;;;;;;;;5000262;28;20116;-78
2023/04/03 10:03:29;;;;;;;1.25;0.52;;;;;;;;;;5004922;28;20029;-79
2023/04/03 10:05:55;;;;;;;1.17;0.30;;;;;;;;;;5001870;28;20053;-78
2023/04/03 10:08:33;;;;;;;1.25;0.30;;;;;;;;;;4991245;28;20034;-79
2023/04/03 10:11:12;;;;;;;0.65;0.30;;;;;;;;;;5009069;28;20470;-79
2023/04/03 10:13:50;;;;;;;0.68;0.32;;;;;;;;;;5007261;28;20032;-79
2023/04/03 10:16:22;;;;;;;0.75;0.20;;;;;;;;;;4988901;28;20025;-78
2023/04/03 10:19:05;;;;;;;1.08;0.38;;;;;;;;;;4991440;28;20109;-79
2023/04/03 10:21:55;;;;;;;0.52;0.28;;;;;;;;;;5001640;28;20034;-79
2023/04/03 10:24:43;;;;;;;1.48;0.40;;;;;;;;;;4998910;28;20037;-78
2023/04/03 10:27:34;;;;;;;0.60;0.30;;;;;;;;;;5008113;28;20057;-79
2023/04/03 10:30:06;;;;;;;2.63;0.35;;;;;;;;;;4987940;28;20034;-78
2023/04/03 10:32:46;;;;;;;1.70;0.40;;;;;;;;;;5000272;28;20058;-79
2023/04/03 10:35:14;;;;;;;0.50;0.20;;;;;;;;;;5006152;28;20100;-79
2023/04/03 10:38:06;;;;;;;0.32;0.20;;;;;;;;;;5006580;28;20038;-78
2023/04/03 10:40:53;;;;;;;1.13;0.43;;;;;;;;;;5004765;28;20030;-79
2023/04/03 10:43:36;;;;;;;1.60;0.32;;;;;;;;;;4999264;28;20018;-79
2023/04/03 10:46:16;;;;;;;0.70;0.47;;;;;;;;;;5006796;28;20029;-79
2023/04/03 10:48:48;;;;;;;0.90;0.40;;;;;;;;;;5006008;28;20628;-78
2023/04/03 10:51:27;;;;;;;1.52;0.35;;;;;;;;;;4985619;28;20502;-78
2023/04/03 10:53:59;;;;;;;0.60;0.22;;;;;;;;;;4989414;28;20038;-78
2023/04/03 10:56:36;;;;;;;0.80;0.32;;;;;;;;;;4990308;28;20057;-78
2023/04/03 10:59:16;;;;;;;0.60;0.30;;;;;;;;;;4981105;28;20030;-77
2023/04/03 11:01:43;;;;;;;1.17;0.35;;;;;;;;;;5001026;28;20049;-79
2023/04/03 11:04:11;;;;;;;0.90;0.40;;;;;;;;;;5004440;28;20080;-78
2023/04/03 11:07:09;;;;;;;1.42;0.32;;;;;;;;;;4988320;28;20026;-79
2023/04/03 11:09:39;;;;;;;1.65;0.40;;;;;;;;;;4977811;28;20046;-78
2023/04/03 11:12:09;;;;;;;2.20;0.40;;;;;;;;;;4987089;28;20038;-78
2023/04/03 11:14:37;;;;;;;0.80;0.40;;;;;;;;;;4987837;28;20112;-78
2023/04/03 11:17:17;;;;;;;0.80;0.40;;;;;;;;;;5003045;28;20535;-79
2023/04/03 11:19:46;;;;;;;1.33;0.40;;;;;;;;;;4984937;28;20029;-79
2023/04/03 11:22:23;;;;;;;3.67;0.50;;;;;;;;;;4999488;28;20036;-79
2023/04/03 11:25:16;;;;;;;1.70;0.40;;;;;;;;;;4995646;28;20030;-79
2023/04/03 11:27:46;;;;;;;2.50;0.40;;;;;;;;;;4985716;28;20029;-79
2023/04/03 11:30:23;;;;;;;1.63;0.40;;;;;;;;;;4979523;28;20026;-78
2023/04/03 11:32:51;;;;;;;0.88;0.40;;;;;;;;;;5005122;28;20033;-78
2023/04/03 11:35:19;;;;;;;0.80;0.38;;;;;;;;;;4997101;28;20045;-79
2023/04/03 11:37:48;;;;;;;1.35;0.60;;;;;;;;;;5002655;28;20397;-78
2023/04/03 11:40:17;;;;;;;0.95;0.43;;;;;;;;;;4989305;28;20038;-79
2023/04/03 11:42:51;;;;;;;0.45;0.40;;;;;;;;;;5004969;28;20080;-79
2023/04/03 11:45:32;;;;;;;1.30;0.47;;;;;;;;;;4987758;28;20390;-79
2023/04/03 11:48:07;;;;;;;0.80;0.40;;;;;;;;;;4996849;28;20120;-79
2023/04/03 11:50:38;;;;;;;1.23;0.40;;;;;;;;;;5009662;28;20081;-80
2023/04/03 11:53:06;;;;;;;1.60;0.60;;;;;;;;;;4989686;28;20112;-79
2023/04/03 11:55:32;;;;;;;2.10;0.60;;;;;;;;;;5007548;28;20030;-79
2023/04/03 11:57:57;;;;;;;1.00;0.60;;;;;;;;;;4983913;28;20376;-79
2023/04/03 12:00:46;;;;;;;2.13;0.40;;;;;;;;;;5010702;28;20030;-79
2023/04/03 12:03:29;;;;;;;0.98;0.40;;;;;;;;;;4991496;28;20036;-80
2023/04/03 12:06:07;;;;;;;0.82;0.57;;;;;;;;;;4992190;28;21781;-79
2023/04/03 12:08:32;;;;;;;2.20;0.50;;;;;;;;;;5008478;28;20033;-79
2023/04/03 12:11:09;;;;;;;2.90;0.80;;;;;;;;;;5006928;28;20041;-79
2023/04/03 12:13:53;;;;;;;1.02;0.47;;;;;;;;;;4993031;28;20038;-79
2023/04/03 12:16:23;;;;;;;1.02;0.50;;;;;;;;;;5009070;28;20034;-79
2023/04/03 12:18:48;;;;;;;2.55;0.75;;;;;;;;;;4978662;28;20558;-79
2023/04/03 12:21:18;;;;;;;2.33;0.50;;;;;;;;;;5008407;28;20029;-80
2023/04/03 12:24:01;;;;;;;3.17;0.70;;;;;;;;;;5013572;28;20109;-80
2023/04/03 12:26:29;;;;;;;;;;;;;;;;;;4991056;28;20096;-80
2023/04/03 12:28:55;;;;;;;1.63;0.45;;;;;;;;;;5009710;28;19929;-79
2023/04/03 12:31:25;;;;;;;1.63;0.60;;;;;;;;;;5013238;28;20026;-80
2023/04/03 12:34:34;;;;;;;1.95;0.77;;;;;;;;;;5010571;28;20482;-80
2023/04/03 12:37:47;;;;;;;3.75;0.65;;;;;;;;;;5010641;28;20028;-79
2023/04/03 12:40:39;;;;;;;1.77;0.60;;;;;;;;;;4968452;28;20041;-80
2023/04/03 12:43:05;;;;;;;1.67;0.60;;;;;;;;;;5008815;28;20034;-80
2023/04/03 12:46:06;;;;;;;1.38;0.60;;;;;;;;;;4985383;28;20068;-81
2023/04/03 12:48:55;;;;;;;2.55;0.88;;;;;;;;;;4987786;28;20124;-80
2023/04/03 12:51:40;;;;;;;2.28;0.70;;;;;;;;;;4995227;28;20025;-80
2023/04/03 12:54:51;;;;;;;1.40;0.65;;;;;;;;;;5000579;28;20052;-80
2023/04/03 12:57:23;;;;;;;1.20;0.50;;;;;;;;;;5003667;28;20124;-80
2023/04/03 12:59:49;;;;;;;3.80;0.80;;;;;;;;;;5003948;28;20029;-80
2023/04/03 13:02:30;;;;;;;1.33;0.60;;;;;;;;;;4984847;28;20041;-80
2023/04/03 13:04:59;;;;;;;5.25;0.80;;;;;;;;;;5008027;28;20116;-81
2023/04/03 13:07:33;;;;;;;4.43;0.90;;;;;;;;;;5003578;28;20313;-80
2023/04/03 13:10:16;;;;;;;3.53;0.90;;;;;;;;;;5007804;28;20040;-80
2023/04/03 13:12:53;;;;;;;2.53;0.50;;;;;;;;;;5005448;28;20034;-80
2023/04/03 13:15:25;;;;;;;1.40;0.60;;;;;;;;;;5004646;28;20124;-80
2023/04/03 13:17:52;;;;;;;1.55;0.60;;;;;;;;;;4988461;28;20057;-80
2023/04/03 13:20:31;;;;;;;2.22;0.70;;;;;;;;;;5008259;28;20060;-77
2023/04/03 13:23:08;;;;;;;1.88;0.63;;;;;;;;;;4987248;28;20049;-79
2023/04/03 13:25:37;;;;;;;1.80;0.75;;;;;;;;;;4989507;28;20033;-78
2023/04/03 13:28:05;;;;;;;1.63;0.70;;;;;;;;;;5006058;28;20080;-79
2023/04/03 13:30:36;;;;;;;1.67;0.65;;;;;;;;;;4987635;28;20087;-80
2023/04/03 13:33:05;;;;;;;2.95;0.70;;;;;;;;;;4980746;28;20440;-79
2023/04/03 13:35:41;;;;;;;3.03;0.90;;;;;;;;;;5006215;28;20030;-80
2023/04/03 13:38:18;;;;;;;6.15;0.80;;;;;;;;;;5001335;28;20030;-80
2023/04/03 13:40:53;;;;;;;1.45;0.70;;;;;;;;;;4988927;28;20472;-79
2023/04/03 13:43:36;;;;;;;1.73;0.70;;;;;;;;;;5004136;28;20484;-79
2023/04/03 13:46:06;;;;;;;2.75;0.93;;;;;;;;;;5006029;28;20030;-80
2023/04/03 13:48:38;;;;;;;2.35;1.10;;;;;;;;;;4991884;28;20081;-80
2023/04/03 13:51:23;;;;;;;2.45;0.82;;;;;;;;;;4985032;28;20032;-80
2023/04/03 13:53:53;;;;;;;1.85;0.60;;;;;;;;;;5000257;28;20091;-80
2023/04/03 13:56:37;;;;;;;2.95;0.82;;;;;;;;;;4984858;28;20026;-81
2023/04/03 13:59:20;;;;;;;3.00;0.95;;;;;;;;;;5003315;28;20030;-81
2023/04/03 14:01:45;;;;;;;;;;;;;;;;;;5001305;28;20037;-80
2023/04/03 14:04:21;;;;;;;2.80;0.90;;;;;;;;;;5000699;28;19923;-81
2023/04/03 14:06:47;;;;;;;2.88;0.90;;;;;;;;;;5003829;28;20044;-80
2023/04/03 14:09:14;;;;;;;2.35;0.93;;;;;;;;;;4973889;28;20030;-81
2023/04/03 14:11:41;;;;;;;2.90;0.93;;;;;;;;;;5005064;28;20560;-80
2023/04/03 14:14:14;;;;;;;3.20;0.80;;;;;;;;;;5004077;28;20081;-80
2023/04/03 14:16:43;;;;;;;2.33;0.70;;;;;;;;;;4986155;28;20371;-80
2023/04/03 14:19:17;;;;;;;1.95;0.90;;;;;;;;;;5005437;28;20153;-80
2023/04/03 14:21:43;;;;;;;2.50;0.85;;;;;;;;;;4989889;28;20032;-81
2023/04/03 14:24:08;;;;;;;2.72;0.73;;;;;;;;;;5001682;28;20386;-79
2023/04/03 14:26:34;;;;;;;3.53;1.10;;;;;;;;;;5010029;28;20040;-79
2023/04/03 14:28:59;;;;;;;1.65;0.60;;;;;;;;;;4984000;28;20029;-81
2023/04/03 14:31:25;;;;;;;2.20;0.73;;;;;;;;;;5002541;28;20517;-80
2023/04/03 14:33:50;;;;;;;2.28;0.70;;;;;;;;;;5003246;28;20026;-80
2023/04/03 14:36:27;;;;;;;3.30;0.90;;;;;;;;;;4983260;28;20676;-80
2023/04/03 14:38:53;;;;;;;2.15;0.70;;;;;;;;;;4988958;28;20453;-79
2023/04/03 14:41:22;;;;;;;1.77;0.73;;;;;;;;;;4999494;28;20375;-81
2023/04/03 14:43:48;;;;;;;2.38;0.85;;;;;;;;;;5001486;28;20052;-80
2023/04/03 14:46:36;;;;;;;2.90;0.57;;;;;;;;;;5003080;28;20482;-80
2023/04/03 14:49:02;;;;;;;1.38;0.60;;;;;;;;;;4986213;28;20037;-80
2023/04/03 14:51:28;;;;;;;1.35;0.80;;;;;;;;;;5011347;28;20044;-80
2023/04/03 14:53:55;;;;;;;1.40;0.77;;;;;;;;;;4988652;28;20022;-79
2023/04/03 14:56:27;;;;;;;3.33;0.77;;;;;;;;;;4988021;28;20033;-80
2023/04/03 14:59:08;;;;;;;2.38;0.90;;;;;;;;;;5002506;28;20478;-80